ROMMA est une association bénévole à but non lucratif. Votre soutien est indispensable : ADHERER à ROMMA ou FAIRE un DON

Die - (26, Drôme)

Diois (400 m)   Longitude: 5° 21' 55"E   Latitude: 44° 45' 16"N Station partenaire n°159
 

Détail journalier du     <<     >>

Température Precipitation Humidité Pression Vent Dir Rafale Dir. rafale Ensol.
Heure (°C) (mm) (%) (hPa) (km/h) (km/h) (min)
01:00 7.8095101903O0
02:00 8.409610201O3O0
03:00 8.1094101905O0
04:00 7.2095101905OSO0
05:00 6.409510191OSO3OSO0
06:00 6.0096101903OSO0
07:00 5.7096101903OSO0
08:00 5.4096101906SO0
09:00 6.1097101903SO0
10:00 8.6097101903SO0
11:00 10.1097101903SO0
12:00 12.209210192SSE6O0
13:00 17.507110182O15O0
14:00 18.806010174ESE18SO30
15:00 18.706010172NE10SSO0
16:00 18.006210173E16ONO0
17:00 18.206310172E10SE0
18:00 17.706510172NNE8SO0
19:00 17.406510172ENE8E0
20:00 16.207310172SSO5S0
21:00 15.707610182SE5ONO0
22:00 15.907710182E6NE0
23:00 15.208010182E6O0
minuit 14.708310181SO6SO0

Graphique du 17-10-2019

 

Serveur OMMA